Time;durP1;ratioP1;P1;durP2;ratioP2;P2;SDS_P1;SDS_P2;PMS_P1;PMS_P2;Temp;Humidity;BMP_temperature;BMP_pressure;BME280_temperature;BME280_humidity;BME280_pressure;Samples;Min_cycle;Max_cycle;Signal;HPM_P1;HPM_P2
2023/01/11 00:02:26;;;;;;;8.53;1.67;;;26.10;99.90;;;;;;4935670;29;20248;-72
2023/01/11 00:04:54;;;;;;;8.60;1.83;;;26.00;99.90;;;;;;4935206;29;20180;-73
2023/01/11 00:07:21;;;;;;;6.47;1.83;;;26.20;99.90;;;;;;4935657;29;20185;-73
2023/01/11 00:09:49;;;;;;;4.77;1.53;;;26.30;99.90;;;;;;4935115;29;20615;-73
2023/01/11 00:12:16;;;;;;;5.90;1.87;;;26.20;99.90;;;;;;4935276;29;20184;-72
2023/01/11 00:14:44;;;;;;;5.63;1.57;;;26.30;99.90;;;;;;4953926;28;20267;-72
2023/01/11 00:17:11;;;;;;;13.80;2.03;;;26.60;99.90;;;;;;4974031;28;20553;-71
2023/01/11 00:19:39;;;;;;;12.10;1.40;;;26.60;99.90;;;;;;4973456;28;20187;-73
2023/01/11 00:22:07;;;;;;;7.27;1.60;;;26.70;99.90;;;;;;4973494;28;20219;-72
2023/01/11 00:24:34;;;;;;;7.57;1.77;;;26.90;99.90;;;;;;4979384;28;20179;-73
2023/01/11 00:27:01;;;;;;;7.10;1.60;;;27.00;99.90;;;;;;4991025;28;20259;-74
2023/01/11 00:29:29;;;;;;;6.20;1.60;;;27.00;99.90;;;;;;4971371;28;20190;-72
2023/01/11 00:31:56;;;;;;;3.67;1.53;;;27.00;99.90;;;;;;4973662;28;20176;-74
2023/01/11 00:34:24;;;;;;;7.10;1.87;;;27.00;99.90;;;;;;4958108;28;20183;-73
2023/01/11 00:36:51;;;;;;;12.87;2.00;;;27.00;99.90;;;;;;4980880;28;20191;-73
2023/01/11 00:39:18;;;;;;;6.17;1.70;;;27.20;99.90;;;;;;4973103;28;20184;-71
2023/01/11 00:50:03;;;;;;;6.67;1.93;;;27.40;99.90;;;;;;4972824;28;20558;-71
2023/01/11 00:52:30;;;;;;;6.67;1.37;;;27.50;99.90;;;;;;4971869;28;20205;-72
2023/01/11 00:54:57;;;;;;;5.07;1.73;;;27.50;99.90;;;;;;4954113;28;20241;-70
2023/01/11 00:57:25;;;;;;;6.43;1.83;;;27.60;99.90;;;;;;4972433;28;20189;-71
2023/01/11 00:59:52;;;;;;;4.13;1.53;;;27.70;99.90;;;;;;4976894;28;20181;-72
2023/01/11 01:02:21;;;;;;;4.30;1.67;;;27.80;99.90;;;;;;4981233;28;20821;-75
2023/01/11 01:04:50;;;;;;;9.13;2.10;;;27.90;99.90;;;;;;4973416;28;20187;-77
2023/01/11 01:07:17;;;;;;;5.73;1.60;;;28.00;99.90;;;;;;4973010;28;20199;-75
2023/01/11 01:09:44;;;;;;;9.07;2.03;;;28.10;99.90;;;;;;4972820;28;20645;-77
2023/01/11 01:14:24;;;;;;;5.63;1.27;;;28.10;99.90;;;;;;4973190;28;20648;-74
2023/01/11 01:14:59;;;;;;;2.97;1.40;;;28.30;99.90;;;;;;4972570;28;20230;-76
2023/01/11 01:17:26;;;;;;;6.57;1.80;;;28.30;99.90;;;;;;4972025;28;20187;-77
2023/01/11 01:19:54;;;;;;;4.40;1.50;;;28.20;99.90;;;;;;4972515;28;20250;-76
2023/01/11 01:22:21;;;;;;;2.90;1.40;;;28.10;99.90;;;;;;4972610;28;20219;-76
2023/01/11 01:24:48;;;;;;;7.13;1.53;;;28.30;99.90;;;;;;4972513;28;20184;-77
2023/01/11 01:27:18;;;;;;;6.70;1.67;;;28.50;99.90;;;;;;4973180;28;20273;-74
2023/01/11 01:29:46;;;;;;;6.43;1.50;;;28.70;99.90;;;;;;4978981;28;20191;-73
2023/01/11 01:32:13;;;;;;;5.53;1.50;;;29.00;99.90;;;;;;4979109;28;20179;-77
2023/01/11 01:34:41;;;;;;;7.10;1.73;;;29.00;99.90;;;;;;4979264;28;20718;-71
2023/01/11 01:37:10;;;;;;;6.87;1.40;;;28.90;99.90;;;;;;4978879;28;20242;-76
2023/01/11 01:39:37;;;;;;;3.57;1.47;;;28.80;99.90;;;;;;4979032;28;20183;-77
2023/01/11 01:42:06;;;;;;;5.50;1.70;;;28.50;99.90;;;;;;4979367;28;20615;-77
2023/01/11 01:44:51;;;;;;;4.90;1.57;;;28.10;99.90;;;;;;4979346;28;20179;-75
2023/01/11 01:47:25;;;;;;;6.70;1.53;;;28.10;99.90;;;;;;4961574;28;20548;-73
2023/01/11 01:49:58;;;;;;;7.30;1.83;;;28.20;99.90;;;;;;4964311;28;20191;-72
2023/01/11 01:52:28;;;;;;;5.10;1.60;;;28.30;99.90;;;;;;4978899;28;20563;-73
2023/01/11 01:55:01;;;;;;;4.93;1.50;;;28.20;99.90;;;;;;4978699;28;20591;-75
2023/01/11 01:57:33;;;;;;;4.53;1.50;;;28.20;99.90;;;;;;4978508;28;20193;-74
2023/01/11 02:00:05;;;;;;;6.50;1.87;;;28.00;99.90;;;;;;4996214;28;20643;-70
2023/01/11 02:02:35;;;;;;;5.97;1.60;;;27.80;99.90;;;;;;4998115;28;20222;-75
2023/01/11 02:05:04;;;;;;;3.43;1.60;;;27.70;99.90;;;;;;4985583;28;20195;-73
2023/01/11 02:07:34;;;;;;;8.63;1.97;;;27.70;99.90;;;;;;4978833;28;20234;-74
2023/01/11 02:10:20;;;;;;;5.53;2.20;;;27.60;99.90;;;;;;4978453;28;20187;-71
2023/01/11 02:12:50;;;;;;;5.67;2.00;;;27.50;99.90;;;;;;4979133;28;20270;-78
2023/01/11 02:15:20;;;;;;;4.80;1.70;;;28.50;99.90;;;;;;4978975;28;20230;-76
2023/01/11 02:17:47;;;;;;;6.90;1.97;;;29.40;99.90;;;;;;4977954;28;20751;-73
2023/01/11 02:20:21;;;;;;;7.60;1.83;;;30.00;99.90;;;;;;4981417;28;20331;-77
2023/01/11 02:23:15;;;;;;;4.23;1.90;;;30.70;99.90;;;;;;4995983;28;20225;-78
2023/01/11 02:26:15;;;;;;;4.80;1.47;;;30.40;99.90;;;;;;4978566;28;20274;-76
2023/01/11 02:29:05;;;;;;;5.30;1.70;;;29.90;99.90;;;;;;4978805;28;20267;-75
2023/01/11 02:31:57;;;;;;;3.53;1.57;;;29.80;99.90;;;;;;4957812;28;20200;-74
2023/01/11 02:34:49;;;;;;;5.97;1.70;;;29.20;99.90;;;;;;4959776;29;20180;-76
2023/01/11 02:37:16;;;;;;;7.00;2.07;;;28.50;99.90;;;;;;4956555;28;20191;-76
2023/01/11 02:40:06;;;;;;;3.60;1.80;;;28.30;99.90;;;;;;4976074;28;20235;-75
2023/01/11 02:46:01;;;;;;;6.57;2.13;;;28.20;99.90;;;;;;4975551;28;20573;-77
2023/01/11 02:48:34;;;;;;;7.10;2.13;;;28.10;99.90;;;;;;4967888;28;20570;-76
2023/01/11 02:51:11;;;;;;;5.40;1.47;;;27.80;99.90;;;;;;4975648;28;20291;-70
2023/01/11 02:53:42;;;;;;;8.67;1.93;;;27.40;99.90;;;;;;4960098;28;20195;-75
2023/01/11 02:56:22;;;;;;;4.77;1.60;;;27.10;99.90;;;;;;4985072;28;20274;-73
2023/01/11 02:58:52;;;;;;;7.60;2.00;;;27.20;99.90;;;;;;4975483;28;20179;-77
2023/01/11 03:01:21;;;;;;;5.80;1.77;;;27.50;99.90;;;;;;4992853;28;20182;-75
2023/01/11 03:03:49;;;;;;;5.33;1.80;;;27.80;99.90;;;;;;4983467;28;20223;-76
2023/01/11 03:06:26;;;;;;;5.53;1.63;;;28.00;99.90;;;;;;4994724;28;20190;-74
2023/01/11 03:08:59;;;;;;;7.00;1.77;;;28.20;99.90;;;;;;4985495;28;20183;-76
2023/01/11 03:14:45;;;;;;;7.03;1.90;;;29.00;99.90;;;;;;4975091;28;20365;-77
2023/01/11 03:17:22;;;;;;;4.27;1.80;;;28.90;99.90;;;;;;4974631;28;20187;-78
2023/01/11 03:19:55;;;;;;;5.90;1.90;;;28.40;99.90;;;;;;4974673;28;20187;-75
2023/01/11 03:22:43;;;;;;;5.43;1.73;;;28.20;99.90;;;;;;4975195;28;20215;-78
2023/01/11 03:25:53;;;;;;;9.03;2.13;;;28.30;99.90;;;;;;4974738;28;20568;-73
2023/01/11 03:28:33;;;;;;;5.77;2.27;;;27.90;99.90;;;;;;4955526;28;20199;-72
2023/01/11 03:31:14;;;;;;;5.13;1.80;;;27.80;99.90;;;;;;4973825;28;20338;-75
2023/01/11 03:33:42;;;;;;;8.43;1.83;;;28.10;99.90;;;;;;4955773;29;20246;-73
2023/01/11 03:36:17;;;;;;;5.03;1.90;;;28.50;99.90;;;;;;4962575;28;20233;-73
2023/01/11 03:39:13;;;;;;;9.57;1.87;;;28.30;99.90;;;;;;4956902;28;20198;-77
2023/01/11 03:41:42;;;;;;;4.97;1.90;;;28.30;99.90;;;;;;4965523;28;20218;-77
2023/01/11 03:44:13;;;;;;;8.53;2.23;;;28.30;99.90;;;;;;4974887;28;20211;-77
2023/01/11 03:46:52;;;;;;;5.63;1.63;;;28.30;99.90;;;;;;4974257;28;20188;-76
2023/01/11 03:49:35;;;;;;;5.40;2.03;;;28.60;99.90;;;;;;4974532;28;20616;-74
2023/01/11 03:52:05;;;;;;;4.13;1.53;;;28.90;99.90;;;;;;4973911;28;20229;-76
2023/01/11 03:54:34;;;;;;;4.03;1.60;;;28.80;99.90;;;;;;4956179;28;20187;-72
2023/01/11 03:57:10;;;;;;;7.40;1.80;;;28.80;99.90;;;;;;4974496;28;20653;-74
2023/01/11 03:59:39;;;;;;;5.63;1.77;;;28.80;99.90;;;;;;4973964;28;20183;-72
2023/01/11 04:02:26;;;;;;;5.33;2.27;;;28.60;99.90;;;;;;4973729;28;20211;-73
2023/01/11 04:04:53;;;;;;;6.47;1.77;;;28.60;99.90;;;;;;4973061;28;20205;-74
2023/01/11 04:07:21;;;;;;;5.70;2.30;;;28.30;99.90;;;;;;4971921;28;20241;-72
2023/01/11 04:09:48;;;;;;;5.70;1.90;;;28.70;99.90;;;;;;4972901;28;20172;-72
2023/01/11 04:12:16;;;;;;;5.87;1.90;;;29.60;99.90;;;;;;4955093;28;20217;-70
2023/01/11 04:14:43;;;;;;;3.63;1.70;;;29.90;99.90;;;;;;4972907;28;20224;-73
2023/01/11 04:17:10;;;;;;;10.87;1.97;;;29.50;99.90;;;;;;4973144;28;20191;-72
2023/01/11 04:19:38;;;;;;;6.90;2.10;;;29.00;99.90;;;;;;4972957;28;20183;-76
2023/01/11 04:22:05;;;;;;;3.90;1.70;;;28.70;99.90;;;;;;4972826;28;20221;-76
2023/01/11 04:24:32;;;;;;;7.77;2.43;;;29.20;99.90;;;;;;4973015;28;20187;-77
2023/01/11 04:27:00;;;;;;;6.57;2.10;;;30.10;99.90;;;;;;4972936;28;20210;-78
2023/01/11 04:29:27;;;;;;;11.87;2.40;;;30.10;99.90;;;;;;4972031;28;20346;-78
2023/01/11 04:31:55;;;;;;;7.77;1.90;;;29.80;99.90;;;;;;4972963;28;20183;-75
2023/01/11 04:34:22;;;;;;;4.93;1.90;;;29.50;99.90;;;;;;4971376;28;20274;-73
2023/01/11 04:36:49;;;;;;;7.13;2.13;;;29.80;99.90;;;;;;4971916;28;20179;-76
2023/01/11 04:39:17;;;;;;;4.23;2.03;;;30.50;99.90;;;;;;4976536;28;20347;-78
2023/01/11 04:44:29;;;;;;;5.67;2.10;;;30.10;99.90;;;;;;4992244;28;20201;-72
2023/01/11 04:46:57;;;;;;;7.67;2.13;;;29.30;99.90;;;;;;4983306;28;20841;-75
2023/01/11 04:49:24;;;;;;;6.90;2.23;;;29.10;99.90;;;;;;4973242;28;20634;-77
2023/01/11 04:51:52;;;;;;;6.17;2.13;;;28.60;99.90;;;;;;4979060;28;20262;-77
2023/01/11 04:54:19;;;;;;;2.77;1.77;;;29.00;99.90;;;;;;4972888;28;20214;-76
2023/01/11 04:56:46;;;;;;;5.13;2.13;;;29.40;99.90;;;;;;4973123;28;20183;-75
2023/01/11 04:59:14;;;;;;;5.83;1.73;;;29.60;99.90;;;;;;4954654;28;20187;-76
2023/01/11 05:01:41;;;;;;;4.90;2.00;;;29.50;99.90;;;;;;4972750;28;20179;-76
2023/01/11 05:04:09;;;;;;;6.93;2.03;;;29.40;99.90;;;;;;4972674;28;20563;-73
2023/01/11 05:06:36;;;;;;;10.20;2.83;;;29.20;99.90;;;;;;4973176;28;20179;-76
2023/01/11 05:09:04;;;;;;;9.17;2.70;;;29.00;99.90;;;;;;4977216;28;20178;-73
2023/01/11 05:11:32;;;;;;;7.47;2.20;;;28.90;99.90;;;;;;4973320;28;20188;-77
2023/01/11 05:13:59;;;;;;;8.63;2.37;;;28.80;99.90;;;;;;4972799;28;20242;-71
2023/01/11 05:16:27;;;;;;;5.97;2.33;;;29.40;99.90;;;;;;4977713;28;20644;-73
2023/01/11 05:18:59;;;;;;;7.40;2.67;;;29.50;99.90;;;;;;4978578;28;20179;-74
2023/01/11 05:21:30;;;;;;;8.17;1.80;;;29.10;99.90;;;;;;4972792;28;20187;-75
2023/01/11 05:23:59;;;;;;;9.47;2.33;;;29.60;99.90;;;;;;4972885;28;20600;-78
2023/01/11 05:26:29;;;;;;;5.27;2.13;;;30.20;99.90;;;;;;4973241;28;20275;-72
2023/01/11 05:28:59;;;;;;;5.33;1.97;;;30.80;99.90;;;;;;4974499;28;20179;-71
2023/01/11 05:31:27;;;;;;;3.08;1.60;;;31.20;99.90;;;;;;4978483;28;20234;-74
2023/01/11 05:33:57;;;;;;;4.97;2.10;;;31.70;99.90;;;;;;4955542;28;20213;-72
2023/01/11 05:36:26;;;;;;;11.27;3.03;;;31.70;99.90;;;;;;4971945;28;20680;-77
2023/01/11 05:38:55;;;;;;;8.87;2.23;;;31.10;99.90;;;;;;4972399;28;20653;-70
2023/01/11 05:41:25;;;;;;;11.00;2.20;;;30.30;99.90;;;;;;4955059;28;20198;-69
2023/01/11 05:46:41;;;;;;;8.55;2.35;;;30.70;99.90;;;;;;4972607;28;20548;-76
2023/01/11 05:49:10;;;;;;;4.63;2.20;;;30.50;99.90;;;;;;4972718;28;20258;-69
2023/01/11 05:51:38;;;;;;;7.60;2.27;;;30.60;99.90;;;;;;4971991;28;20184;-70
2023/01/11 05:54:08;;;;;;;7.67;2.40;;;30.50;99.90;;;;;;4972262;28;20227;-70
2023/01/11 05:56:36;;;;;;;5.87;1.90;;;30.40;99.90;;;;;;4955974;28;20253;-71
2023/01/11 05:59:03;;;;;;;4.27;1.90;;;30.20;99.90;;;;;;4972182;28;20190;-77
2023/01/11 06:01:31;;;;;;;5.83;2.23;;;29.90;99.90;;;;;;4955404;28;20265;-70
2023/01/11 06:03:58;;;;;;;5.80;2.00;;;30.10;99.90;;;;;;4973080;28;20203;-70
2023/01/11 06:06:27;;;;;;;8.70;2.40;;;30.40;99.90;;;;;;4971889;28;20194;-70
2023/01/11 06:08:55;;;;;;;4.90;2.20;;;30.50;99.90;;;;;;4954757;28;20194;-70
2023/01/11 06:11:22;;;;;;;5.37;2.07;;;30.20;99.90;;;;;;4954929;28;20238;-72
2023/01/11 06:13:50;;;;;;;7.80;2.10;;;29.80;99.90;;;;;;4972400;28;20590;-71
2023/01/11 06:16:20;;;;;;;7.37;2.57;;;29.40;99.90;;;;;;4976273;28;20230;-70
2023/01/11 06:18:50;;;;;;;5.23;2.50;;;29.20;99.90;;;;;;4975092;28;20688;-71
2023/01/11 06:21:18;;;;;;;4.90;2.27;;;29.40;99.90;;;;;;4975252;28;20218;-70
2023/01/11 06:23:49;;;;;;;5.10;2.17;;;29.20;99.90;;;;;;4975988;28;20305;-70
2023/01/11 06:26:20;;;;;;;4.40;2.37;;;28.80;99.90;;;;;;4975647;28;20188;-70
2023/01/11 06:28:48;;;;;;;6.67;2.53;;;28.60;99.90;;;;;;4975308;28;20183;-70
2023/01/11 06:31:16;;;;;;;5.40;2.30;;;28.70;99.90;;;;;;4975720;28;20172;-72
2023/01/11 06:33:43;;;;;;;7.60;2.10;;;28.50;99.90;;;;;;4975648;28;20183;-68
2023/01/11 06:36:12;;;;;;;7.73;2.47;;;28.20;99.90;;;;;;4975228;28;20195;-75
2023/01/11 06:38:40;;;;;;;5.87;1.80;;;28.20;99.90;;;;;;4975275;28;20183;-68
2023/01/11 06:41:08;;;;;;;6.03;2.90;;;28.10;99.90;;;;;;4975688;28;20262;-71
2023/01/11 06:43:37;;;;;;;6.13;2.63;;;27.90;99.90;;;;;;4958302;28;20310;-73
2023/01/11 06:46:08;;;;;;;6.57;2.57;;;27.70;99.90;;;;;;4976053;28;20562;-70
2023/01/11 06:48:36;;;;;;;9.33;2.80;;;27.50;99.90;;;;;;4975740;28;20191;-70
2023/01/11 06:51:03;;;;;;;6.20;2.57;;;27.70;99.90;;;;;;4975401;28;20205;-74
2023/01/11 06:53:31;;;;;;;6.30;2.43;;;27.70;99.90;;;;;;4975744;28;20242;-70
2023/01/11 06:55:58;;;;;;;7.13;2.67;;;27.90;99.90;;;;;;4975865;28;20241;-77
2023/01/11 06:58:26;;;;;;;8.00;2.37;;;28.10;99.90;;;;;;4974791;28;20194;-69
2023/01/11 07:00:56;;;;;;;7.40;2.47;;;27.80;99.90;;;;;;4975497;28;20218;-70
2023/01/11 07:03:24;;;;;;;8.03;2.50;;;27.90;99.90;;;;;;4974861;28;20215;-70
2023/01/11 07:05:55;;;;;;;6.07;2.43;;;28.00;99.90;;;;;;4974855;28;20179;-69
2023/01/11 07:08:26;;;;;;;5.83;2.20;;;27.80;99.90;;;;;;4975410;28;20215;-73
2023/01/11 07:10:54;;;;;;;4.73;2.20;;;27.70;99.90;;;;;;4975525;28;20176;-69
2023/01/11 07:13:22;;;;;;;5.47;2.03;;;27.90;99.90;;;;;;4974900;28;20179;-70
2023/01/11 07:15:52;;;;;;;6.83;2.27;;;27.90;99.90;;;;;;4984691;28;20625;-72
2023/01/11 07:18:20;;;;;;;6.47;2.63;;;27.90;99.90;;;;;;4978795;28;20195;-71
2023/01/11 07:20:49;;;;;;;7.63;2.90;;;27.70;99.90;;;;;;4975092;28;20187;-69
2023/01/11 07:23:17;;;;;;;5.57;2.40;;;27.60;99.90;;;;;;4975171;28;20223;-71
2023/01/11 07:25:44;;;;;;;4.77;2.30;;;27.50;99.90;;;;;;4982875;28;20242;-72
2023/01/11 07:28:11;;;;;;;4.67;2.10;;;27.50;99.90;;;;;;4974805;28;20180;-70
2023/01/11 07:30:39;;;;;;;7.23;3.07;;;27.60;99.90;;;;;;4958022;28;20183;-69
2023/01/11 07:33:09;;;;;;;8.20;2.50;;;27.40;99.90;;;;;;4974432;28;20183;-71
2023/01/11 07:35:36;;;;;;;9.53;2.70;;;27.20;99.90;;;;;;4974372;28;20196;-69
2023/01/11 07:38:08;;;;;;;6.67;2.47;;;27.20;99.90;;;;;;4975132;28;20186;-74
2023/01/11 07:40:38;;;;;;;7.37;2.67;;;27.10;99.90;;;;;;4974133;28;20253;-70
2023/01/11 07:43:17;;;;;;;6.43;2.10;;;27.20;99.90;;;;;;4974172;28;20219;-73
2023/01/11 07:45:49;;;;;;;6.80;2.50;;;27.10;99.90;;;;;;4988633;28;20190;-70
2023/01/11 07:48:25;;;;;;;6.87;2.77;;;27.10;99.90;;;;;;4992585;28;20182;-73
2023/01/11 07:50:53;;;;;;;5.90;2.50;;;27.00;99.90;;;;;;4974504;28;20262;-75
2023/01/11 07:53:24;;;;;;;4.93;2.20;;;27.00;99.90;;;;;;4974528;28;20216;-75
2023/01/11 07:55:51;;;;;;;4.67;2.10;;;27.00;99.90;;;;;;4974584;28;20187;-74
2023/01/11 07:58:19;;;;;;;10.40;2.33;;;26.80;99.90;;;;;;4974509;28;20171;-71
2023/01/11 08:00:46;;;;;;;10.40;2.60;;;26.60;99.90;;;;;;4978838;28;20170;-68
2023/01/11 08:03:13;;;;;;;7.27;2.13;;;26.50;99.90;;;;;;4993924;28;20245;-73
2023/01/11 08:05:41;;;;;;;7.53;2.10;;;26.40;99.90;;;;;;4992087;28;20227;-69
2023/01/11 08:08:08;;;;;;;3.97;1.93;;;26.30;99.90;;;;;;4974527;28;20183;-70
2023/01/11 08:10:36;;;;;;;8.43;2.20;;;26.00;99.90;;;;;;4974014;28;20198;-72
2023/01/11 08:15:49;;;;;;;11.10;2.53;;;25.90;99.90;;;;;;4974317;28;20285;-70
2023/01/11 08:18:16;;;;;;;6.37;2.33;;;25.60;99.90;;;;;;4973156;28;20286;-70
2023/01/11 08:20:44;;;;;;;6.13;2.57;;;25.50;99.90;;;;;;4973410;28;20686;-72
2023/01/11 08:23:12;;;;;;;3.87;2.10;;;25.40;99.90;;;;;;4973579;28;20277;-70
2023/01/11 08:25:39;;;;;;;7.67;2.50;;;25.40;99.90;;;;;;4974258;28;20191;-69
2023/01/11 08:28:07;;;;;;;12.80;3.00;;;25.20;99.90;;;;;;4973650;28;20187;-70
2023/01/11 08:30:36;;;;;;;7.43;2.67;;;25.10;99.90;;;;;;4973924;28;20216;-69
2023/01/11 08:33:04;;;;;;;5.97;2.47;;;25.00;99.90;;;;;;4974026;28;20206;-69
2023/01/11 08:35:36;;;;;;;6.13;2.27;;;24.90;99.90;;;;;;4973280;28;20190;-72
2023/01/11 08:38:04;;;;;;;6.83;2.20;;;24.70;99.90;;;;;;4973206;28;20524;-70
2023/01/11 08:40:31;;;;;;;9.43;2.70;;;24.70;99.90;;;;;;4973415;28;20215;-68
2023/01/11 08:42:59;;;;;;;10.03;2.50;;;24.60;99.90;;;;;;4973456;28;20310;-70
2023/01/11 08:45:26;;;;;;;8.40;3.03;;;24.50;99.90;;;;;;4973577;28;20214;-70
2023/01/11 08:47:54;;;;;;;7.53;2.67;;;24.40;99.90;;;;;;4973478;28;20192;-70
2023/01/11 08:50:22;;;;;;;9.43;2.73;;;24.40;99.90;;;;;;4973264;28;20637;-71
2023/01/11 08:52:51;;;;;;;8.13;2.70;;;24.20;99.90;;;;;;4973272;28;20190;-70
2023/01/11 08:55:19;;;;;;;5.53;2.30;;;24.10;99.90;;;;;;4973620;28;20188;-69
2023/01/11 08:57:46;;;;;;;6.20;1.87;;;24.00;99.90;;;;;;4991167;28;20205;-70
2023/01/11 09:00:14;;;;;;;3.73;2.17;;;23.90;99.90;;;;;;4978044;28;20187;-73
2023/01/11 09:02:44;;;;;;;8.90;2.33;;;23.90;99.90;;;;;;4973463;28;20222;-72
2023/01/11 09:05:11;;;;;;;7.13;2.33;;;23.80;99.90;;;;;;4973085;28;20606;-70
2023/01/11 09:07:39;;;;;;;7.50;2.07;;;23.80;99.90;;;;;;4979132;28;20740;-72
2023/01/11 09:10:06;;;;;;;5.50;2.00;;;23.80;99.90;;;;;;4973059;28;20183;-70
2023/01/11 09:12:34;;;;;;;7.70;2.20;;;23.70;99.90;;;;;;4972933;28;20190;-74
2023/01/11 09:15:04;;;;;;;8.17;2.30;;;23.60;99.90;;;;;;4973131;28;20238;-69
2023/01/11 09:17:32;;;;;;;5.53;2.00;;;23.60;99.90;;;;;;4973124;28;20268;-73
2023/01/11 09:19:59;;;;;;;5.40;2.50;;;23.50;99.90;;;;;;4972354;28;20179;-69
2023/01/11 09:22:27;;;;;;;8.37;2.07;;;23.50;99.90;;;;;;4973025;28;20211;-71
2023/01/11 09:24:57;;;;;;;3.70;1.93;;;23.40;99.90;;;;;;4973100;28;20615;-70
2023/01/11 09:27:25;;;;;;;7.17;2.70;;;23.30;99.90;;;;;;4972618;28;20183;-71
2023/01/11 09:29:52;;;;;;;8.33;2.33;;;23.20;99.90;;;;;;4972597;28;20191;-75
2023/01/11 09:32:20;;;;;;;6.10;2.57;;;23.20;99.90;;;;;;4972974;28;20182;-70
2023/01/11 09:34:48;;;;;;;8.50;2.40;;;23.20;99.90;;;;;;4980078;28;20337;-73
2023/01/11 09:37:16;;;;;;;7.00;2.47;;;23.20;99.90;;;;;;4973738;28;20240;-71
2023/01/11 09:39:44;;;;;;;6.33;2.23;;;23.10;99.90;;;;;;4973463;28;20195;-75
2023/01/11 09:42:30;;;;;;;5.43;2.33;;;23.10;99.90;;;;;;4973657;28;20203;-71
2023/01/11 09:45:20;;;;;;;6.13;2.40;;;23.10;99.90;;;;;;4974036;28;20241;-69
2023/01/11 09:48:10;;;;;;;7.40;2.30;;;23.10;99.90;;;;;;4973926;28;20192;-70
2023/01/11 09:50:42;;;;;;;5.07;2.40;;;23.00;99.90;;;;;;4952004;28;20601;-76
2023/01/11 09:53:35;;;;;;;5.10;2.30;;;23.00;99.90;;;;;;4960178;28;20214;-68
2023/01/11 09:56:06;;;;;;;8.23;2.20;;;22.90;99.90;;;;;;4977131;28;20201;-69
2023/01/11 09:58:55;;;;;;;7.03;2.70;;;23.00;99.90;;;;;;4991239;28;20188;-68
2023/01/11 10:02:04;;;;;;;9.83;2.03;;;22.90;99.90;;;;;;4997223;28;20628;-71
2023/01/11 10:04:36;;;;;;;6.33;2.10;;;22.90;99.90;;;;;;4997246;28;20193;-69
2023/01/11 10:07:24;;;;;;;7.83;2.20;;;22.80;99.90;;;;;;4972047;28;20198;-69
2023/01/11 10:10:03;;;;;;;6.00;2.20;;;22.80;99.90;;;;;;4977385;28;20187;-70
2023/01/11 10:13:03;;;;;;;8.07;2.70;;;22.80;99.90;;;;;;4977633;28;20179;-69
2023/01/11 10:15:37;;;;;;;12.07;2.73;;;22.70;99.90;;;;;;4958936;28;20692;-73
2023/01/11 10:18:32;;;;;;;7.23;2.53;;;22.70;99.90;;;;;;4976809;28;20194;-69
2023/01/11 10:21:46;;;;;;;12.50;2.37;;;22.60;99.90;;;;;;4977416;28;20588;-72
2023/01/11 10:24:37;;;;;;;6.97;2.10;;;22.60;99.90;;;;;;4977322;28;20242;-69
2023/01/11 10:27:21;;;;;;;7.17;2.37;;;22.60;99.90;;;;;;4977206;28;20542;-76
2023/01/11 10:30:05;;;;;;;7.57;2.27;;;22.60;99.90;;;;;;4977650;28;20187;-73
2023/01/11 10:32:52;;;;;;;6.13;2.43;;;22.60;99.90;;;;;;4977091;28;20179;-70
2023/01/11 10:36:04;;;;;;;9.90;2.47;;;22.50;99.90;;;;;;4977214;28;20549;-73
2023/01/11 10:39:06;;;;;;;9.00;2.77;;;22.50;99.90;;;;;;4976241;28;20242;-74
2023/01/11 10:41:56;;;;;;;8.97;2.40;;;22.60;99.90;;;;;;4970279;28;20187;-71
2023/01/11 10:44:51;;;;;;;8.97;2.67;;;22.50;99.90;;;;;;4976524;28;20660;-69
2023/01/11 10:47:23;;;;;;;11.27;2.67;;;22.50;99.90;;;;;;4976613;28;20201;-69
2023/01/11 10:50:00;;;;;;;9.10;2.60;;;22.50;99.90;;;;;;4976561;28;20269;-72
2023/01/11 10:52:34;;;;;;;9.30;2.33;;;22.50;99.90;;;;;;4976904;28;20190;-69
2023/01/11 10:55:42;;;;;;;6.67;2.40;;;22.50;99.90;;;;;;4976995;28;20601;-70
2023/01/11 10:58:29;;;;;;;10.30;2.57;;;22.50;99.90;;;;;;4967059;28;20285;-70
2023/01/11 11:01:21;;;;;;;7.13;2.60;;;22.50;99.90;;;;;;4951056;28;20187;-71
2023/01/11 11:04:06;;;;;;;10.50;2.40;;;22.60;99.90;;;;;;4976701;28;20253;-69
2023/01/11 11:06:56;;;;;;;15.17;2.43;;;22.60;99.90;;;;;;4976941;28;20176;-71
2023/01/11 11:09:45;;;;;;;10.50;2.27;;;22.60;99.90;;;;;;4976724;28;20273;-68
2023/01/11 11:12:43;;;;;;;11.97;2.80;;;22.70;99.90;;;;;;4976811;28;20550;-69
2023/01/11 11:15:23;;;;;;;6.00;2.33;;;22.70;99.90;;;;;;4975680;28;20680;-72
2023/01/11 11:17:52;;;;;;;7.97;2.00;;;22.60;99.90;;;;;;4976490;28;20197;-71
2023/01/11 11:20:22;;;;;;;8.67;2.40;;;22.60;99.90;;;;;;4976156;28;20278;-68
2023/01/11 11:22:52;;;;;;;7.83;2.67;;;22.70;99.90;;;;;;4976429;28;20243;-69
2023/01/11 11:25:21;;;;;;;9.00;2.53;;;22.70;99.90;;;;;;4976142;28;20658;-68
2023/01/11 11:28:05;;;;;;;9.47;3.23;;;22.70;99.90;;;;;;4976230;28;20206;-72
2023/01/11 11:30:37;;;;;;;8.50;2.30;;;22.70;99.90;;;;;;4975599;28;20189;-71
2023/01/11 11:33:15;;;;;;;12.90;2.83;;;22.60;99.90;;;;;;4976024;28;20293;-70
2023/01/11 11:35:45;;;;;;;6.37;2.80;;;22.60;99.90;;;;;;4976762;28;20181;-72
2023/01/11 11:38:28;;;;;;;7.37;2.37;;;22.60;99.90;;;;;;4976127;28;20270;-70
2023/01/11 11:41:07;;;;;;;5.80;2.57;;;22.60;99.90;;;;;;4975834;28;20325;-76
2023/01/11 11:43:39;;;;;;;8.20;2.40;;;22.70;99.90;;;;;;4975377;28;20317;-75
2023/01/11 11:46:27;;;;;;;11.77;3.10;;;22.70;99.90;;;;;;4976201;28;20180;-75
2023/01/11 11:49:16;;;;;;;7.17;2.00;;;22.60;99.90;;;;;;4975482;28;20186;-70
2023/01/11 11:51:46;;;;;;;6.80;2.80;;;22.70;99.90;;;;;;4975735;28;20182;-69
2023/01/11 11:54:42;;;;;;;15.20;3.10;;;22.60;99.90;;;;;;4975467;28;20194;-70
2023/01/11 11:57:29;;;;;;;11.37;2.83;;;22.60;99.90;;;;;;4970766;28;20557;-70
2023/01/11 12:00:31;;;;;;;8.07;2.43;;;22.50;99.90;;;;;;4975646;28;20172;-69
2023/01/11 12:03:13;;;;;;;15.77;3.10;;;22.50;99.90;;;;;;4975876;28;20289;-70
2023/01/11 12:05:54;;;;;;;8.63;2.60;;;22.60;99.90;;;;;;4975460;28;20225;-72
2023/01/11 12:08:23;;;;;;;10.17;2.30;;;22.60;99.90;;;;;;4975654;28;20252;-70
2023/01/11 12:10:57;;;;;;;10.03;2.83;;;22.50;99.90;;;;;;4975375;28;20278;-68
2023/01/11 12:13:27;;;;;;;11.93;3.13;;;22.50;99.90;;;;;;4975461;28;20181;-72
2023/01/11 12:16:03;;;;;;;7.80;2.40;;;22.40;99.90;;;;;;4975439;28;20230;-73
2023/01/11 12:18:43;;;;;;;11.07;2.37;;;22.50;99.90;;;;;;4975423;28;20628;-68
2023/01/11 12:21:21;;;;;;;9.27;2.00;;;22.50;99.90;;;;;;4975064;28;20648;-68
2023/01/11 12:24:11;;;;;;;7.37;2.50;;;22.50;99.90;;;;;;4974994;28;20213;-69
2023/01/11 12:27:15;;;;;;;9.90;2.90;;;22.60;99.90;;;;;;4975239;28;20195;-70
2023/01/11 12:30:02;;;;;;;10.30;2.63;;;22.60;99.90;;;;;;4974291;28;20273;-69
2023/01/11 12:32:35;;;;;;;13.50;2.60;;;22.60;99.90;;;;;;4974042;28;20635;-72
2023/01/11 12:35:17;;;;;;;6.33;2.37;;;22.60;99.90;;;;;;4955547;29;20176;-70
2023/01/11 12:38:23;;;;;;;6.93;2.23;;;22.60;99.90;;;;;;4955093;29;20180;-74
2023/01/11 12:41:00;;;;;;;10.03;2.77;;;22.50;99.90;;;;;;4954976;28;20572;-69
2023/01/11 12:43:51;;;;;;;9.47;2.40;;;22.50;99.90;;;;;;4974348;28;20294;-72
2023/01/11 12:46:55;;;;;;;8.00;2.60;;;22.50;99.90;;;;;;4974407;28;20179;-69
2023/01/11 12:49:40;;;;;;;8.80;2.80;;;22.40;99.90;;;;;;4973393;28;20647;-71
2023/01/11 12:52:29;;;;;;;9.70;2.17;;;22.40;99.90;;;;;;4972513;28;20631;-69
2023/01/11 12:55:23;;;;;;;8.93;2.67;;;22.40;99.90;;;;;;4974601;28;20715;-70
2023/01/11 12:58:03;;;;;;;11.03;2.80;;;22.40;99.90;;;;;;4973557;28;20264;-72
2023/01/11 13:00:52;;;;;;;9.10;2.40;;;22.40;99.90;;;;;;4973809;28;20186;-68
2023/01/11 13:03:49;;;;;;;6.50;2.23;;;22.40;99.90;;;;;;4973966;28;20219;-68
2023/01/11 13:06:32;;;;;;;8.53;2.50;;;22.40;99.90;;;;;;4956240;28;20198;-68
2023/01/11 13:09:20;;;;;;;14.50;3.63;;;22.30;99.90;;;;;;4971920;28;20561;-67
2023/01/11 13:12:33;;;;;;;9.70;2.60;;;22.30;99.90;;;;;;4973801;28;20174;-68
2023/01/11 13:15:12;;;;;;;7.63;2.10;;;22.30;99.90;;;;;;4914337;29;20243;-70
2023/01/11 13:17:58;;;;;;;14.37;3.23;;;22.30;99.90;;;;;;4901770;29;20190;-68
2023/01/11 13:20:51;;;;;;;11.67;2.50;;;22.30;99.90;;;;;;4948687;28;20195;-69
2023/01/11 13:23:44;;;;;;;15.73;2.73;;;22.30;99.90;;;;;;4973881;28;20230;-74
2023/01/11 13:26:25;;;;;;;10.53;2.53;;;22.30;99.90;;;;;;4973852;28;20238;-72
2023/01/11 13:29:03;;;;;;;8.90;2.27;;;22.30;99.90;;;;;;4974865;28;20188;-69
2023/01/11 13:31:33;;;;;;;12.33;2.50;;;22.30;99.90;;;;;;4955240;29;20220;-68
2023/01/11 13:34:06;;;;;;;8.33;2.47;;;22.30;99.90;;;;;;4937954;29;20194;-70
2023/01/11 13:36:42;;;;;;;13.43;2.47;;;22.30;99.90;;;;;;4961559;28;20186;-71
2023/01/11 13:39:27;;;;;;;10.10;2.47;;;22.30;99.90;;;;;;4974139;28;20270;-70
2023/01/11 13:41:59;;;;;;;9.03;2.83;;;22.30;99.90;;;;;;4974507;28;20179;-69
2023/01/11 13:44:42;;;;;;;9.23;2.57;;;22.30;99.90;;;;;;4974123;28;20199;-73
2023/01/11 13:47:36;;;;;;;16.10;2.57;;;22.30;99.90;;;;;;4956621;28;20189;-73